Terminal Aerodrome Forecast
Issued by NWS

Home | Current Version | Previous Version | Text Only | Print | Product List | Glossary On
Versions: 1 2 3 4 5 6 7 8 9 10 11 12 13 14 15 16 17 18 19 20 21 22 23 24 25 26 27 28
465
FTUS45 KABQ 160231 AAA
TAFGUP
TAF AMD
KGUP 160231Z 1603/1624 08006KT P6SM SCT025 OVC035
      TEMPO 1602/1605 5SM -SHRA OVC022
     FM160700 VRB04KT 3SM BR BKN008
     FM161700 25006KT P6SM SCT035 SCT250
     FM162000 25010KT P6SM SCT060 SCT250=

USA.gov is the U.S. government's official web portal to all federal, state and local government web resources and services.